EGPF/GLA METAR and TAF weather

Enter ICAO airport designator
Station Type Date Time Source
EGPF METAR 2021/03/05 12:50 UTC NOAA

EGPF 051250Z AUTO VRB01KT 9999 OVC032 04/M03 Q1036


Station Type Date Time Source
EGPF Decoded METAR 2021/03/05 12:50 UTC NOAA

Glasgow Airport, United Kingdom (EGPF) 55-52N 004-26W 0M
Mar 05, 2021 - 07:50 AM EST / 2021.03.05 1250 UTC
Wind: Variable at 1 MPH (1 KT):0
Visibility: greater than 7 mile(s):0
Sky conditions: overcast
Temperature: 39 F (4 C)
Dew Point: 26 F (-3 C)
Relative Humidity: 60%
Pressure (altimeter): 30.59 in. Hg (1036 hPa)
ob: EGPF 051250Z AUTO VRB01KT 9999 OVC032 04/M03 Q1036
cycle: 13

Station Type Date Time Source
EGPF TAF 2021/03/05 12:09 UTC NOAA

TAF EGPF 051058Z 0512/0612 VRB03KT 9999 SCT035 PROB30
TEMPO 0602/0609 6000

Example: see airport list